createdAt,value
2018-03-04T00:00:20.096Z,157.62
2018-03-04T00:02:55.641Z,156.98
2018-03-04T00:05:32.359Z,148.57
2018-03-04T00:08:07.840Z,143.40
2018-03-04T00:10:46.003Z,154.02
2018-03-04T00:13:25.796Z,138.68
2018-03-04T00:16:03.931Z,146.50
2018-03-04T00:18:39.232Z,142.52
2018-03-04T00:21:18.060Z,154.52
2018-03-04T00:23:54.906Z,155.82
2018-03-04T00:26:30.723Z,145.50
2018-03-04T00:29:05.836Z,150.65
2018-03-04T00:31:42.520Z,146.00
2018-03-04T00:34:17.965Z,163.80
2018-03-04T00:36:55.556Z,148.00
2018-03-04T00:39:32.121Z,144.43
2018-03-04T00:42:08.050Z,145.30
2018-03-04T00:44:45.302Z,163.27
2018-03-04T00:47:22.883Z,147.93
2018-03-04T00:49:59.091Z,157.18
2018-03-04T00:52:41.776Z,152.43
2018-03-04T00:55:17.540Z,142.27
2018-03-04T00:57:53.313Z,152.85
2018-03-04T01:00:30.546Z,143.15
2018-03-04T01:03:05.904Z,151.27
2018-03-04T01:05:41.719Z,150.45
2018-03-04T01:08:20.809Z,148.65
2018-03-04T01:10:59.433Z,154.15
2018-03-04T01:13:35.794Z,144.73
2018-03-04T01:16:12.637Z,145.80
2018-03-04T01:18:51.120Z,154.15
2018-03-04T01:21:28.790Z,144.27
2018-03-04T01:24:07.121Z,156.87
2018-03-04T01:26:43.275Z,155.15
2018-03-04T01:29:19.642Z,165.30
2018-03-04T01:31:58.571Z,144.85
2018-03-04T01:34:35.965Z,154.43
2018-03-04T01:37:13.111Z,143.35
2018-03-04T01:39:48.425Z,162.48
2018-03-04T01:42:24.643Z,173.68
2018-03-04T01:45:01.536Z,149.85
2018-03-04T01:47:38.252Z,164.00
2018-03-04T01:50:12.998Z,155.73
2018-03-04T01:52:49.841Z,148.40
2018-03-04T01:55:26.521Z,151.95
2018-03-04T01:58:01.790Z,157.68
2018-03-04T02:00:39.242Z,161.30
2018-03-04T02:03:15.356Z,154.10
2018-03-04T02:05:51.006Z,155.20
2018-03-04T02:08:31.353Z,145.87
2018-03-04T02:11:07.264Z,157.77
2018-03-04T02:13:42.753Z,155.95
2018-03-04T02:16:19.889Z,154.90
2018-03-04T02:18:58.030Z,167.37
2018-03-04T02:21:33.382Z,153.00
2018-03-04T02:24:09.466Z,166.05
2018-03-04T02:26:46.094Z,174.40
2018-03-04T02:29:23.688Z,158.27
2018-03-04T02:31:58.981Z,145.12
2018-03-04T02:34:38.228Z,153.95
2018-03-04T02:37:13.492Z,153.68
2018-03-04T02:39:50.270Z,172.50
2018-03-04T02:42:32.543Z,160.52
2018-03-04T02:45:09.821Z,163.85
2018-03-04T02:47:46.564Z,150.15
2018-03-04T02:50:23.685Z,151.12
2018-03-04T02:53:00.711Z,151.23
2018-03-04T02:55:37.561Z,158.52
2018-03-04T02:58:15.187Z,151.23
2018-03-04T03:00:52.776Z,167.98
2018-03-04T03:03:30.681Z,139.70
2018-03-04T03:06:07.123Z,153.43
2018-03-04T03:08:43.750Z,156.63
2018-03-04T03:11:21.229Z,171.00
2018-03-04T03:14:00.437Z,177.15
2018-03-04T03:16:37.266Z,162.82
2018-03-04T03:19:15.790Z,168.93
2018-03-04T03:21:51.595Z,164.10
2018-03-04T03:24:26.686Z,162.85
2018-03-04T03:27:04.147Z,156.37
2018-03-04T03:29:42.236Z,155.82
2018-03-04T03:32:19.470Z,165.32
2018-03-04T03:35:01.964Z,153.30
2018-03-04T03:37:39.137Z,174.75
2018-03-04T03:40:22.014Z,160.73
2018-03-04T03:42:59.006Z,155.68
2018-03-04T03:45:34.648Z,159.57
2018-03-04T03:48:09.616Z,173.87
2018-03-04T03:50:47.423Z,170.30
2018-03-04T03:53:24.619Z,164.43
2018-03-04T03:56:01.489Z,167.98
2018-03-04T03:58:36.885Z,163.43
2018-03-04T04:01:13.466Z,161.52
2018-03-04T04:03:49.240Z,169.77
2018-03-04T04:06:26.156Z,157.18
2018-03-04T04:09:01.853Z,174.85
2018-03-04T04:11:40.575Z,168.25
2018-03-04T04:14:18.348Z,144.18
2018-03-04T04:17:00.819Z,158.43
2018-03-04T04:19:35.889Z,157.25
2018-03-04T04:22:12.457Z,178.68
2018-03-04T04:24:47.786Z,166.00
2018-03-04T04:27:24.526Z,160.63
2018-03-04T04:30:06.816Z,162.00
2018-03-04T04:32:41.976Z,165.98
2018-03-04T04:35:18.312Z,165.70
2018-03-04T04:37:59.383Z,184.32
2018-03-04T04:40:35.042Z,185.95
2018-03-04T04:43:10.653Z,150.87
2018-03-04T04:45:46.123Z,166.82
2018-03-04T04:48:21.776Z,171.05
2018-03-04T04:50:59.072Z,157.32
2018-03-04T04:53:36.794Z,167.55
2018-03-04T04:56:13.595Z,164.52
2018-03-04T04:58:57.643Z,163.65
2018-03-04T05:01:34.500Z,168.80
2018-03-04T05:04:10.492Z,155.55
2018-03-04T05:06:45.703Z,157.18
2018-03-04T05:09:22.401Z,152.73
2018-03-04T05:11:59.104Z,162.35
2018-03-04T05:14:35.522Z,169.62
2018-03-04T05:17:12.549Z,162.02
2018-03-04T05:19:50.657Z,160.93
2018-03-04T05:22:33.236Z,168.98
2018-03-04T05:25:11.703Z,167.07
2018-03-04T05:27:48.087Z,172.35
2018-03-04T05:30:25.016Z,158.00
2018-03-04T05:33:00.993Z,168.93
2018-03-04T05:35:44.174Z,168.55
2018-03-04T05:38:19.972Z,164.55
2018-03-04T05:40:57.060Z,155.48
2018-03-04T05:43:34.698Z,159.35
2018-03-04T05:46:11.266Z,175.07
2018-03-04T05:48:48.162Z,154.57
2018-03-04T05:51:21.985Z,160.90
2018-03-04T05:53:59.056Z,150.23
2018-03-04T05:56:34.414Z,164.18
2018-03-04T05:59:11.551Z,181.05
2018-03-04T06:01:47.520Z,168.48
2018-03-04T06:04:24.219Z,162.88
2018-03-04T06:07:05.878Z,160.00
2018-03-04T06:09:44.251Z,160.65
2018-03-04T06:12:20.720Z,158.25
2018-03-04T06:14:59.540Z,154.85
2018-03-04T06:17:36.612Z,157.23
2018-03-04T06:20:18.177Z,161.15
2018-03-04T06:22:54.879Z,165.62
2018-03-04T06:25:30.944Z,161.62
2018-03-04T06:28:08.889Z,154.30
2018-03-04T06:30:45.435Z,160.32
2018-03-04T06:33:22.181Z,161.52
2018-03-04T06:35:58.923Z,165.23
2018-03-04T06:38:41.297Z,156.43
2018-03-04T06:41:16.979Z,156.02
2018-03-04T06:43:53.641Z,152.57
2018-03-04T06:46:30.679Z,161.68
2018-03-04T06:49:07.611Z,162.73
2018-03-04T06:51:49.852Z,166.27
2018-03-04T06:54:27.309Z,157.52
2018-03-04T06:57:03.097Z,150.23
2018-03-04T06:59:40.463Z,165.40
2018-03-04T07:02:16.445Z,154.65
2018-03-04T07:04:52.248Z,145.82
2018-03-04T07:07:30.706Z,161.43
2018-03-04T07:10:07.911Z,169.23
2018-03-04T07:12:45.989Z,169.07
2018-03-04T07:15:21.987Z,162.27
2018-03-04T07:18:00.980Z,164.20
2018-03-04T07:20:37.363Z,166.57
2018-03-04T07:23:17.207Z,155.23
2018-03-04T07:25:54.194Z,156.43
2018-03-04T07:28:30.716Z,152.05
2018-03-04T07:31:08.756Z,159.45
2018-03-04T07:33:45.831Z,151.20
2018-03-04T07:36:23.089Z,154.27
2018-03-04T07:38:59.835Z,149.85
2018-03-04T07:41:37.001Z,156.30
2018-03-04T07:44:15.424Z,143.48
2018-03-04T07:46:54.385Z,147.52
2018-03-04T07:49:30.508Z,144.25
2018-03-04T07:52:06.574Z,135.10
2018-03-04T07:54:45.067Z,125.50
2018-03-04T07:57:22.610Z,128.12
2018-03-04T08:00:02.370Z,127.43
2018-03-04T08:02:39.851Z,127.47
2018-03-04T08:05:19.246Z,135.23
2018-03-04T08:07:57.380Z,145.00
2018-03-04T08:10:34.570Z,136.15
2018-03-04T08:13:10.364Z,133.48
2018-03-04T08:15:47.691Z,135.73
2018-03-04T08:18:23.824Z,127.18
2018-03-04T08:21:02.966Z,140.93
2018-03-04T08:23:39.085Z,135.93
2018-03-04T08:26:25.818Z,132.15
2018-03-04T08:28:55.485Z,140.88
2018-03-04T08:31:32.266Z,126.28
2018-03-04T08:34:14.162Z,134.85
2018-03-04T08:36:50.455Z,122.40
2018-03-04T08:39:27.620Z,118.35
2018-03-04T08:42:09.831Z,124.60
2018-03-04T08:44:48.134Z,123.40
2018-03-04T08:47:27.031Z,110.65
2018-03-04T08:50:02.767Z,117.62
2018-03-04T08:52:38.149Z,124.12
2018-03-04T08:55:15.605Z,116.97
2018-03-04T08:57:52.902Z,122.80
2018-03-04T09:00:29.916Z,114.72
2018-03-04T09:03:05.228Z,119.72
2018-03-04T09:05:40.897Z,110.97
2018-03-04T09:08:17.850Z,114.18
2018-03-04T09:10:54.723Z,112.22
2018-03-04T09:13:30.783Z,111.57
2018-03-04T09:16:06.022Z,109.72
2018-03-04T09:18:43.126Z,100.80
2018-03-04T09:21:21.517Z,105.45
2018-03-04T09:23:58.797Z,118.78
2018-03-04T09:26:34.112Z,115.25
2018-03-04T09:29:11.233Z,102.30
2018-03-04T09:31:49.363Z,107.53
2018-03-04T09:34:25.808Z,115.03
2018-03-04T09:37:02.652Z,115.40
2018-03-04T09:39:39.474Z,110.03
2018-03-04T09:42:16.119Z,103.10
2018-03-04T09:44:51.706Z,117.15
2018-03-04T09:47:28.514Z,95.05
2018-03-04T09:50:06.713Z,85.45
2018-03-04T09:52:44.693Z,78.22
2018-03-04T09:55:21.920Z,98.35
2018-03-04T09:57:58.944Z,93.07
2018-03-04T10:00:35.350Z,99.80
2018-03-04T10:03:12.726Z,92.62
2018-03-04T10:05:53.084Z,90.45
2018-03-04T10:08:31.422Z,85.75
2018-03-04T10:11:07.779Z,90.65
2018-03-04T10:13:44.009Z,79.53
2018-03-04T10:16:20.455Z,75.53
2018-03-04T10:19:03.051Z,85.68
2018-03-04T10:21:38.971Z,87.80
2018-03-04T10:24:16.337Z,74.78
2018-03-04T10:26:58.213Z,76.10
2018-03-04T10:29:34.614Z,74.18
2018-03-04T10:32:14.838Z,75.65
2018-03-04T10:34:54.293Z,76.93
2018-03-04T10:37:30.345Z,73.15
2018-03-04T10:40:07.637Z,77.28
2018-03-04T10:42:45.595Z,80.70
2018-03-04T10:45:21.186Z,75.55
2018-03-04T10:47:56.718Z,73.22
2018-03-04T10:50:35.142Z,72.18
2018-03-04T10:53:11.794Z,74.68
2018-03-04T10:55:53.797Z,77.05
2018-03-04T10:58:31.277Z,79.15
2018-03-04T11:01:10.448Z,71.30
2018-03-04T11:03:40.547Z,70.32
2018-03-04T11:06:18.963Z,66.57
2018-03-04T11:08:55.047Z,72.05
2018-03-04T11:11:31.770Z,73.35
2018-03-04T11:14:10.092Z,63.63
2018-03-04T11:16:45.585Z,70.65
2018-03-04T11:19:22.638Z,74.37
2018-03-04T11:21:59.247Z,65.28
2018-03-04T11:24:35.393Z,75.07
2018-03-04T11:27:14.871Z,60.45
2018-03-04T11:29:53.426Z,59.00
2018-03-04T11:32:30.192Z,74.22
2018-03-04T11:35:08.823Z,66.30
2018-03-04T11:40:12.649Z,68.47
2018-03-04T11:42:51.087Z,70.95
2018-03-04T11:45:28.330Z,65.82
2018-03-04T11:48:05.830Z,65.03
2018-03-04T11:50:42.639Z,62.05
2018-03-04T11:53:24.904Z,60.72
2018-03-04T11:56:02.454Z,65.47
2018-03-04T11:58:40.374Z,64.45
2018-03-04T12:01:17.768Z,73.37
2018-03-04T12:03:55.024Z,69.93
2018-03-04T12:06:31.283Z,65.43
2018-03-04T12:09:10.206Z,62.90
2018-03-04T12:11:46.680Z,66.57
2018-03-04T12:14:23.049Z,56.75
2018-03-04T12:17:01.809Z,64.18
2018-03-04T12:19:38.643Z,56.05
2018-03-04T12:22:09.886Z,62.65
2018-03-04T12:24:49.213Z,66.87
2018-03-04T12:27:29.083Z,61.42
2018-03-04T12:30:05.559Z,66.30
2018-03-04T12:32:42.586Z,58.75
2018-03-04T12:35:20.632Z,55.35
2018-03-04T12:37:56.217Z,53.55
2018-03-04T12:40:31.780Z,51.97
2018-03-04T12:43:09.573Z,63.95
2018-03-04T12:45:46.512Z,56.78
2018-03-04T12:48:23.469Z,49.58
2018-03-04T12:51:01.897Z,54.08
2018-03-04T12:53:39.207Z,52.10
2018-03-04T12:56:16.367Z,51.17
2018-03-04T12:58:55.165Z,42.10
2018-03-04T13:01:32.107Z,39.30
2018-03-04T13:04:09.657Z,42.47
2018-03-04T13:06:48.679Z,44.70
2018-03-04T13:09:28.047Z,44.25
2018-03-04T13:12:03.906Z,49.58
2018-03-04T13:14:38.782Z,45.25
2018-03-04T13:17:16.330Z,41.15
2018-03-04T13:19:51.617Z,40.05
2018-03-04T13:22:31.997Z,43.50
2018-03-04T13:25:09.620Z,45.90
2018-03-04T13:27:47.868Z,49.13
2018-03-04T13:30:23.839Z,48.80
2018-03-04T13:33:01.935Z,46.55
2018-03-04T13:35:40.007Z,53.70
2018-03-04T13:38:16.119Z,51.03
2018-03-04T13:40:53.042Z,62.30
2018-03-04T13:43:29.379Z,55.17
2018-03-04T13:46:14.027Z,47.83
2018-03-04T13:48:52.492Z,52.85
2018-03-04T13:51:34.587Z,44.95
2018-03-04T13:54:14.541Z,50.25
2018-03-04T13:56:51.332Z,56.22
2018-03-04T13:59:33.952Z,56.53
2018-03-04T14:02:14.497Z,48.38
2018-03-04T14:04:50.596Z,53.47
2018-03-04T14:07:28.022Z,50.35
2018-03-04T14:10:07.907Z,50.58
2018-03-04T14:12:44.520Z,42.65
2018-03-04T14:15:22.463Z,43.87
2018-03-04T14:17:58.372Z,49.75
2018-03-04T14:20:36.143Z,49.22
2018-03-04T14:23:16.371Z,45.45
2018-03-04T14:25:53.244Z,44.75
2018-03-04T14:28:31.261Z,47.10
2018-03-04T14:31:10.717Z,50.00
2018-03-04T14:33:48.196Z,50.10
2018-03-04T14:36:26.894Z,44.95
2018-03-04T14:39:05.640Z,43.63
2018-03-04T14:41:44.288Z,48.55
2018-03-04T14:44:20.881Z,45.28
2018-03-04T14:46:59.672Z,49.88
2018-03-04T14:49:37.970Z,49.70
2018-03-04T14:52:13.209Z,44.20
2018-03-04T14:54:48.642Z,42.25
2018-03-04T14:57:26.938Z,43.13
2018-03-04T15:00:02.659Z,43.63
2018-03-04T15:02:38.241Z,45.50
2018-03-04T15:05:14.310Z,45.20
2018-03-04T15:07:52.887Z,43.28
2018-03-04T15:10:30.165Z,41.13
2018-03-04T15:13:07.068Z,54.88
2018-03-04T15:15:44.080Z,40.30
2018-03-04T15:18:21.152Z,49.80
2018-03-04T15:20:59.174Z,42.30
2018-03-04T15:23:35.888Z,45.65
2018-03-04T15:26:12.515Z,52.22
2018-03-04T15:28:49.259Z,46.65
2018-03-04T15:31:24.324Z,42.40
2018-03-04T15:34:00.124Z,40.67
2018-03-04T15:36:36.847Z,44.33
2018-03-04T15:39:15.879Z,44.05
2018-03-04T15:41:55.183Z,46.53
2018-03-04T15:44:31.267Z,39.67
2018-03-04T15:47:13.611Z,55.12
2018-03-04T15:49:52.739Z,41.83
2018-03-04T15:52:30.728Z,39.85
2018-03-04T15:55:07.083Z,45.70
2018-03-04T15:57:43.497Z,49.90
2018-03-04T16:00:22.546Z,48.58
2018-03-04T16:02:59.372Z,45.47
2018-03-04T16:05:36.018Z,40.65
2018-03-04T16:08:11.918Z,50.83
2018-03-04T16:10:49.653Z,45.38
2018-03-04T16:13:29.869Z,39.38
2018-03-04T16:16:06.882Z,41.83
2018-03-04T16:18:48.958Z,53.63
2018-03-04T16:21:26.682Z,47.88
2018-03-04T16:24:03.729Z,48.50
2018-03-04T16:26:38.871Z,47.33
2018-03-04T16:29:18.367Z,45.92
2018-03-04T16:31:55.701Z,42.10
2018-03-04T16:34:32.655Z,46.37
2018-03-04T16:37:15.889Z,44.40
2018-03-04T16:39:55.661Z,40.45
2018-03-04T16:42:33.189Z,41.72
2018-03-04T16:45:11.799Z,42.65
2018-03-04T16:47:48.546Z,41.83
2018-03-04T16:50:28.013Z,37.05
2018-03-04T16:53:04.501Z,42.78
2018-03-04T16:55:41.223Z,46.97
2018-03-04T16:58:17.144Z,47.60
2018-03-04T17:00:54.347Z,47.42
2018-03-04T17:03:34.328Z,44.13
2018-03-04T17:06:12.683Z,40.35
2018-03-04T17:08:48.479Z,44.13
2018-03-04T17:11:25.293Z,52.10
2018-03-04T17:14:00.849Z,53.00
2018-03-04T17:16:39.098Z,43.97
2018-03-04T17:19:17.766Z,52.38
2018-03-04T17:21:53.311Z,48.45
2018-03-04T17:24:28.721Z,60.50
2018-03-04T17:27:07.224Z,52.78
2018-03-04T17:29:44.576Z,45.85
2018-03-04T17:32:21.284Z,47.22
2018-03-04T17:34:57.166Z,50.85
2018-03-04T17:37:32.900Z,60.95
2018-03-04T17:40:09.243Z,51.37
2018-03-04T17:42:46.123Z,43.63
2018-03-04T17:45:22.143Z,48.72
2018-03-04T17:47:58.183Z,64.35
2018-03-04T17:50:35.669Z,43.05
2018-03-04T17:53:14.206Z,49.22
2018-03-04T17:55:50.293Z,47.35
2018-03-04T17:58:27.763Z,47.97
2018-03-04T18:01:04.909Z,51.57
2018-03-04T18:03:41.117Z,68.55
2018-03-04T18:06:20.259Z,64.55
2018-03-04T18:08:57.236Z,51.88
2018-03-04T18:11:35.300Z,49.97
2018-03-04T18:14:12.596Z,55.33
2018-03-04T18:16:48.380Z,53.63
2018-03-04T18:19:27.545Z,56.22
2018-03-04T18:22:05.909Z,52.78
2018-03-04T18:24:42.531Z,54.45
2018-03-04T18:27:19.400Z,49.30
2018-03-04T18:29:57.589Z,57.80
2018-03-04T18:32:34.554Z,62.60
2018-03-04T18:35:11.583Z,57.92
2018-03-04T18:37:49.749Z,69.50
2018-03-04T18:40:28.336Z,74.95
2018-03-04T18:43:05.549Z,75.72
2018-03-04T18:45:43.160Z,69.22
2018-03-04T18:48:23.157Z,69.95
2018-03-04T18:51:00.397Z,84.65
2018-03-04T18:53:38.042Z,73.53
2018-03-04T18:56:15.250Z,81.00
2018-03-04T18:58:55.740Z,78.85
2018-03-04T19:01:33.711Z,82.18
2018-03-04T19:04:10.381Z,86.15
2018-03-04T19:06:50.554Z,93.37
2018-03-04T19:09:28.145Z,78.20
2018-03-04T19:12:05.999Z,82.75
2018-03-04T19:14:41.239Z,79.60
2018-03-04T19:17:18.269Z,86.50
2018-03-04T19:19:55.563Z,80.60
2018-03-04T19:22:34.407Z,88.18
2018-03-04T19:25:12.156Z,81.87
2018-03-04T19:27:49.274Z,92.37
2018-03-04T19:30:25.305Z,83.07
2018-03-04T19:33:02.085Z,79.05
2018-03-04T19:35:39.052Z,91.07
2018-03-04T19:38:16.885Z,88.12
2018-03-04T19:40:54.711Z,89.13
2018-03-04T19:43:32.186Z,84.57
2018-03-04T19:46:13.927Z,87.45
2018-03-04T19:48:50.698Z,85.60
2018-03-04T19:51:26.951Z,90.22
2018-03-04T19:54:03.886Z,84.45
2018-03-04T19:56:41.680Z,95.10
2018-03-04T19:59:23.426Z,87.28
2018-03-04T20:01:59.878Z,86.80
2018-03-04T20:04:36.925Z,83.70
2018-03-04T20:07:13.905Z,89.82
2018-03-04T20:09:51.679Z,87.62
2018-03-04T20:12:30.433Z,93.87
2018-03-04T20:15:08.624Z,100.03
2018-03-04T20:17:49.140Z,89.85
2018-03-04T20:20:29.589Z,85.65
2018-03-04T20:23:06.808Z,87.40
2018-03-04T20:25:45.015Z,93.35
2018-03-04T20:28:21.227Z,92.90
2018-03-04T20:30:57.683Z,95.93
2018-03-04T20:33:33.476Z,109.30
2018-03-04T20:36:08.703Z,106.53
2018-03-04T20:38:44.390Z,98.97
2018-03-04T20:41:24.048Z,101.35
2018-03-04T20:43:59.482Z,96.75
2018-03-04T20:46:36.784Z,99.00
2018-03-04T20:49:12.331Z,110.78
2018-03-04T20:51:50.237Z,102.50
2018-03-04T20:54:28.387Z,107.40
2018-03-04T20:57:05.623Z,108.60
2018-03-04T20:59:44.163Z,107.43
2018-03-04T21:02:22.199Z,89.22
2018-03-04T21:05:09.619Z,91.37
2018-03-04T21:07:46.189Z,80.38
2018-03-04T21:10:23.498Z,79.90
2018-03-04T21:13:01.736Z,66.68
2018-03-04T21:15:38.224Z,66.20
2018-03-04T21:18:15.633Z,71.62
2018-03-04T21:20:53.329Z,64.18
2018-03-04T21:23:30.919Z,58.15
2018-03-04T21:26:08.340Z,73.30
2018-03-04T21:28:44.712Z,61.50
2018-03-04T21:31:23.978Z,65.22
2018-03-04T21:33:59.564Z,55.55
2018-03-04T21:36:35.901Z,52.13
2018-03-04T21:39:12.460Z,39.97
2018-03-04T21:41:49.546Z,34.58
2018-03-04T21:44:26.405Z,28.40
2018-03-04T21:47:03.721Z,23.33
2018-03-04T21:49:44.586Z,23.58
2018-03-04T21:52:21.578Z,14.50
2018-03-04T21:55:00.109Z,21.02
2018-03-04T21:57:32.542Z,20.45
2018-03-04T22:00:11.725Z,22.60
2018-03-04T22:02:51.128Z,20.77
2018-03-04T22:05:29.357Z,21.80
2018-03-04T22:08:05.757Z,15.00
2018-03-04T22:10:44.664Z,16.58
2018-03-04T22:13:26.662Z,13.57
2018-03-04T22:16:04.461Z,14.30
2018-03-04T22:18:43.274Z,13.52
2018-03-04T22:21:21.577Z,16.33
2018-03-04T22:23:57.833Z,12.63
2018-03-04T22:26:36.683Z,13.45
2018-03-04T22:29:16.816Z,11.35
2018-03-04T22:31:54.563Z,13.65
2018-03-04T22:34:32.596Z,15.25
2018-03-04T22:37:09.279Z,12.48
2018-03-04T22:39:45.367Z,11.40
2018-03-04T22:42:21.459Z,12.20
2018-03-04T22:44:57.990Z,11.00
2018-03-04T22:47:35.551Z,10.88
2018-03-04T22:50:17.205Z,11.25
2018-03-04T22:52:53.766Z,12.60
2018-03-04T22:55:30.573Z,12.50
2018-03-04T22:58:07.348Z,11.70
2018-03-04T23:00:47.065Z,10.05
2018-03-04T23:03:23.689Z,9.93
2018-03-04T23:06:00.660Z,10.95
2018-03-04T23:08:41.265Z,10.63
2018-03-04T23:11:19.967Z,9.15
2018-03-04T23:13:58.158Z,10.40
2018-03-04T23:16:37.604Z,8.85
2018-03-04T23:19:15.703Z,10.55
2018-03-04T23:21:53.790Z,9.55
2018-03-04T23:24:32.247Z,9.18
2018-03-04T23:27:09.838Z,10.27
2018-03-04T23:29:47.649Z,9.20
2018-03-04T23:32:25.207Z,9.40
2018-03-04T23:35:04.431Z,15.32
2018-03-04T23:37:41.893Z,11.05
2018-03-04T23:40:17.642Z,9.13
2018-03-04T23:42:53.683Z,8.13
2018-03-04T23:45:29.442Z,10.07
2018-03-04T23:48:05.099Z,8.73
2018-03-04T23:50:41.426Z,9.75
2018-03-04T23:53:17.900Z,8.85
2018-03-04T23:55:55.010Z,7.50
2018-03-04T23:58:36.790Z,8.20
